.
WxDataArchive / Data Records for 2006-12-02
2006-12-01 December 2006 2006-12-03

Data Records for Saturday, 02 December 2006

Time	Temp	Chill	HIndex	Humid	Dewpt	 Wind 	HiWind	WindDir	Rain 	Barom 
-----	----	-----	------	-----	-----	------	------	-------	-----	----- 
00:00	26.9	19.4	26.9	71	18.8	7	14	270	0.00	30.176 
00:05	26.9	26.9	26.9	71	18.8	3	13	270	0.00	30.176 
00:10	26.9	22.2	26.9	70	18.4	4	9	270	0.00	30.176 
00:15	26.9	22.2	26.9	70	18.4	4	10	270	0.00	30.177 
00:20	26.9	26.9	26.9	69	18.1	3	7	270	0.00	30.177 
00:25	26.9	26.9	26.9	70	18.4	2	6	270	0.00	30.177 
00:30	26.9	26.9	26.9	69	18.1	3	11	270	0.00	30.176 
00:35	26.9	26.9	26.9	71	18.8	2	7	248	0.00	30.176 
00:40	26.9	26.9	26.9	71	18.8	2	8	248	0.00	30.176 
00:45	26.7	22.0	26.7	70	18.3	4	11	270	0.00	30.180 
00:50	26.6	21.8	26.6	70	18.2	4	11	270	0.00	30.180 
00:55	26.6	26.6	26.6	70	18.2	3	7	270	0.00	30.180 
01:00	26.6	21.8	26.6	70	18.2	4	7	270	0.00	30.180 
01:05	26.4	21.6	26.4	71	18.3	4	12	270	0.00	30.180 
01:10	26.4	26.4	26.4	72	18.6	3	8	270	0.00	30.180 
01:15	26.3	20.4	26.3	72	18.5	5	14	270	0.00	30.185 
01:20	26.1	20.1	26.1	72	18.3	5	13	270	0.00	30.185 
01:25	26.0	21.1	26.0	72	18.2	4	10	270	0.00	30.185 
01:30	25.8	25.8	25.8	73	18.4	3	7	270	0.00	30.187 
01:35	25.8	25.8	25.8	74	18.7	3	8	248	0.00	30.187 
01:40	25.8	25.8	25.8	74	18.7	3	5	270	0.00	30.187 
01:45	25.7	20.8	25.7	74	18.6	4	13	248	0.00	30.204 
01:50	25.6	25.6	25.6	75	18.8	3	9	270	0.00	30.204 
01:55	25.6	25.6	25.6	74	18.5	3	9	270	0.00	30.204 
02:00	25.4	19.3	25.4	74	18.3	5	14	270	0.00	30.212 
02:05	25.4	25.4	25.4	75	18.6	3	9	270	0.00	30.212 
02:10	25.4	25.4	25.4	76	18.9	2	9	270	0.00	30.212 
02:15	25.4	25.4	25.4	76	18.9	3	10	248	0.00	30.223 
02:20	25.4	25.4	25.4	76	18.9	3	10	270	0.00	30.223 
02:25	25.3	25.3	25.3	76	18.8	3	9	270	0.00	30.223 
02:30	25.1	25.1	25.1	76	18.6	3	12	270	0.00	30.225 
02:35	25.0	20.0	25.0	76	18.5	4	11	270	0.00	30.225 
02:40	25.0	25.0	25.0	76	18.5	3	7	270	0.00	30.225 
02:45	24.8	24.8	24.8	76	18.3	3	8	270	0.00	30.235 
02:50	24.7	24.7	24.7	76	18.2	3	11	270	0.00	30.235 
02:55	24.7	24.7	24.7	76	18.2	3	9	270	0.00	30.235 
03:00	24.5	24.5	24.5	77	18.3	3	8	270	0.00	30.242 
03:05	24.4	19.3	24.4	77	18.2	4	13	270	0.00	30.242 
03:10	24.4	24.4	24.4	77	18.2	3	6	270	0.00	30.242 
03:15	24.2	24.2	24.2	77	18.1	3	13	270	0.00	30.253 
03:20	24.2	24.2	24.2	77	18.1	2	9	270	0.00	30.253 
03:25	24.1	24.1	24.1	77	18.0	3	7	248	0.00	30.253 
03:30	24.1	24.1	24.1	78	18.3	2	6	270	0.00	30.258 
03:35	23.9	23.9	23.9	78	18.1	3	10	270	0.00	30.258 
03:40	23.9	23.9	23.9	78	18.1	2	7	248	0.00	30.258 
03:45	23.9	23.9	23.9	78	18.1	2	7	270	0.00	30.269 
03:50	23.9	23.9	23.9	78	18.1	1	6	270	0.00	30.269 
03:55	23.9	23.9	23.9	78	18.1	2	6	248	0.00	30.269 
04:00	23.8	23.8	23.8	79	18.3	1	5	270	0.00	30.271 
04:05	23.8	23.8	23.8	79	18.3	3	9	248	0.00	30.271 
04:10	23.6	23.6	23.6	79	18.1	1	4	248	0.00	30.271 
04:15	23.5	23.5	23.5	79	18.0	2	5	248	0.00	30.272 
04:20	23.5	23.5	23.5	79	18.0	3	7	248	0.00	30.272 
04:25	23.3	23.3	23.3	79	17.8	1	4	248	0.00	30.272 
04:30	23.2	23.2	23.2	80	18.0	1	5	248	0.00	30.272 
04:35	23.2	23.2	23.2	80	18.0	2	6	248	0.00	30.272 
04:40	23.0	23.0	23.0	80	17.8	1	3	248	0.00	30.272 
04:45	23.0	23.0	23.0	80	17.8	1	4	270	0.00	30.270 
04:50	23.0	23.0	23.0	81	18.1	1	5	270	0.00	30.270 
04:55	22.9	22.9	22.9	81	18.0	1	2	248	0.00	30.270 
05:00	22.7	22.7	22.7	81	17.8	0	2	248	0.00	30.274 
05:05	22.7	22.7	22.7	81	17.8	1	5	248	0.00	30.274 
05:10	22.7	22.7	22.7	81	17.8	1	3	248	0.00	30.274 
05:15	22.7	22.7	22.7	81	17.8	1	5	248	0.00	30.284 
05:20	22.7	22.7	22.7	81	17.8	1	7	248	0.00	30.284 
05:25	22.7	22.7	22.7	82	18.0	1	7	248	0.00	30.284 
05:30	22.5	22.5	22.5	82	17.9	1	4	248	0.00	30.276 
05:35	22.5	22.5	22.5	82	17.9	1	4	248	0.00	30.276 
05:40	22.4	22.4	22.4	82	17.8	1	3	248	0.00	30.276 
05:45	22.4	22.4	22.4	82	17.8	1	4	248	0.00	30.292 
05:50	22.4	22.4	22.4	82	17.8	1	4	248	0.00	30.292 
05:55	22.4	22.4	22.4	82	17.8	1	3	248	0.00	30.292 
06:00	22.2	22.2	22.2	82	17.6	1	4	248	0.00	30.291 
06:05	22.2	22.2	22.2	82	17.6	1	4	248	0.00	30.291 
06:10	22.2	22.2	22.2	82	17.6	1	3	248	0.00	30.291 
06:15	22.2	22.2	22.2	83	17.8	1	4	248	0.00	30.296 
06:20	22.1	22.1	22.1	83	17.7	1	4	248	0.00	30.296 
06:25	22.1	22.1	22.1	83	17.7	1	3	248	0.00	30.296 
06:30	21.9	21.9	21.9	83	17.5	1	4	248	0.00	30.300 
06:35	21.9	21.9	21.9	83	17.5	0	3	248	0.00	30.300 
06:40	21.9	21.9	21.9	83	17.5	1	6	248	0.00	30.300 
06:45	21.9	21.9	21.9	83	17.5	0	2	248	0.00	30.307 
06:50	21.8	21.8	21.8	83	17.4	0	2	248	0.00	30.307 
06:55	21.8	21.8	21.8	83	17.4	0	2	248	0.00	30.307 
07:00	21.8	21.8	21.8	84	17.7	1	3	248	0.00	30.316 
07:05	21.8	21.8	21.8	84	17.7	1	4	248	0.00	30.316 
07:10	21.8	21.8	21.8	84	17.7	1	4	248	0.00	30.316 
07:15	21.8	21.8	21.8	83	17.4	1	3	248	0.00	30.322 
07:20	21.8	21.8	21.8	83	17.4	1	3	270	0.00	30.322 
07:25	21.8	21.8	21.8	83	17.4	1	5	248	0.00	30.322 
07:30	21.8	21.8	21.8	83	17.4	1	5	248	0.00	30.327 
07:35	21.8	21.8	21.8	83	17.4	1	4	248	0.00	30.327 
07:40	21.8	21.8	21.8	83	17.4	1	4	248	0.00	30.327 
07:45	21.6	21.6	21.6	84	17.5	1	5	248	0.00	30.327 
07:50	21.8	21.8	21.8	84	17.7	1	4	248	0.00	30.327 
07:55	21.8	21.8	21.8	84	17.7	1	4	248	0.00	30.327 
08:00	21.6	21.6	21.6	84	17.5	1	3	248	0.00	30.338 
08:05	21.6	21.6	21.6	84	17.5	1	4	248	0.00	30.338 
08:10	21.8	21.8	21.8	84	17.7	2	5	248	0.00	30.338 
08:15	21.8	21.8	21.8	84	17.7	2	5	248	0.00	30.347 
08:20	21.9	21.9	21.9	83	17.5	2	5	248	0.00	30.347 
08:25	22.1	22.1	22.1	83	17.7	2	5	248	0.00	30.347 
08:30	22.2	22.2	22.2	83	17.8	1	4	248	0.00	30.356 
08:35	22.4	22.4	22.4	82	17.8	2	6	248	0.00	30.356 
08:40	22.5	22.5	22.5	82	17.9	2	5	248	0.00	30.356 
08:45	22.7	22.7	22.7	81	17.8	2	5	248	0.00	30.359 
08:50	22.9	22.9	22.9	81	18.0	2	7	248	0.00	30.359 
08:55	23.0	23.0	23.0	81	18.1	3	7	248	0.00	30.359 
09:00	23.2	23.2	23.2	81	18.3	2	7	248	0.00	30.362 
09:05	23.3	23.3	23.3	80	18.1	3	11	248	0.00	30.362 
09:10	23.5	23.5	23.5	80	18.3	3	7	248	0.00	30.362 
09:15	23.6	18.4	23.6	80	18.4	4	7	270	0.00	30.370 
09:20	23.8	23.8	23.8	80	18.5	3	7	248	0.00	30.370 
09:25	24.1	24.1	24.1	79	18.5	2	5	248	0.00	30.370 
09:30	24.2	24.2	24.2	78	18.3	3	7	248	0.00	30.378 
09:35	24.2	24.2	24.2	78	18.3	3	7	248	0.00	30.378 
09:40	24.4	24.4	24.4	78	18.5	3	9	248	0.00	30.378 
09:45	24.5	24.5	24.5	78	18.6	3	7	248	0.00	30.377 
09:50	24.8	24.8	24.8	77	18.6	2	6	248	0.00	30.377 
09:55	25.0	20.0	25.0	76	18.5	4	12	248	0.00	30.377 
10:00	25.1	25.1	25.1	76	18.6	3	6	248	0.00	30.383 
10:05	25.4	25.4	25.4	75	18.6	2	5	248	0.00	30.383 
10:10	25.6	25.6	25.6	74	18.5	3	7	248	0.00	30.383 
10:15	25.7	25.7	25.7	75	18.9	2	5	248	0.00	30.385 
10:20	26.0	26.0	26.0	73	18.6	3	6	270	0.00	30.385 
10:25	26.1	26.1	26.1	73	18.7	2	7	248	0.00	30.385 
10:30	26.3	26.3	26.3	73	18.8	3	8	248	0.00	30.386 
10:35	26.4	26.4	26.4	73	18.9	2	5	248	0.00	30.386 
10:40	26.7	26.7	26.7	72	18.9	2	5	248	0.00	30.386 
10:45	27.0	27.0	27.0	72	19.2	2	5	248	0.00	30.387 
10:50	27.2	27.2	27.2	71	19.1	2	6	248	0.00	30.387 
10:55	27.3	27.3	27.3	71	19.2	2	6	248	0.00	30.387 
11:00	27.5	27.5	27.5	70	19.0	2	6	248	0.00	30.386 
11:05	27.8	27.8	27.8	69	19.0	2	6	248	0.00	30.386 
11:10	27.9	27.9	27.9	69	19.1	2	6	248	0.00	30.386 
11:15	28.2	28.2	28.2	67	18.7	3	9	248	0.00	30.395 
11:20	28.2	28.2	28.2	68	19.0	3	5	248	0.00	30.395 
11:25	28.7	28.7	28.7	68	19.5	2	9	248	0.00	30.395 
11:30	29.1	29.1	29.1	66	19.2	2	6	248	0.00	30.399 
11:35	29.4	29.4	29.4	65	19.1	2	6	270	0.00	30.399 
11:40	29.5	29.5	29.5	65	19.2	3	7	270	0.00	30.399 
11:45	29.4	29.4	29.4	65	19.1	3	7	248	0.00	30.400 
11:50	29.5	29.5	29.5	65	19.2	3	7	248	0.00	30.400 
11:55	29.5	25.2	29.5	63	18.5	4	10	248	0.00	30.400 
12:00	29.8	29.8	29.8	65	19.5	2	6	248	0.00	30.389 
12:05	30.3	30.3	30.3	63	19.2	3	7	248	0.00	30.389 
12:10	30.3	30.3	30.3	62	18.9	3	7	248	0.00	30.389 
12:15	30.6	30.6	30.6	62	19.2	3	6	270	0.00	30.383 
12:20	30.9	30.9	30.9	62	19.4	3	6	270	0.00	30.383 
12:25	31.0	26.9	31.0	61	19.1	4	11	270	0.00	30.383 
12:30	31.3	31.3	31.3	61	19.4	3	9	248	0.00	30.381 
12:35	31.6	31.6	31.6	62	20.1	3	8	248	0.00	30.381 
12:40	31.6	27.6	31.6	60	19.3	4	10	248	0.00	30.381 
12:45	31.8	31.8	31.8	62	20.3	3	9	248	0.00	30.372 
12:50	32.1	32.1	32.1	63	20.9	2	5	248	0.00	30.372 
12:55	32.5	32.5	32.5	60	20.2	2	6	248	0.00	30.372 
13:00	32.7	28.9	32.7	58	19.6	4	9	248	0.00	30.368 
13:05	32.7	32.7	32.7	59	20.0	3	7	248	0.00	30.368 
13:10	32.9	32.9	32.9	58	19.8	3	11	248	0.00	30.368 
13:15	33.1	33.1	33.1	58	20.0	3	9	248	0.00	30.364 
13:20	33.4	33.4	33.4	60	21.0	3	7	270	0.00	30.364 
13:25	33.4	29.7	33.4	57	19.8	4	9	270	0.00	30.364 
13:30	33.5	29.8	33.5	57	19.9	4	9	270	0.00	30.362 
13:35	33.7	30.0	33.7	55	19.3	4	10	270	0.00	30.362 
13:40	34.1	34.1	34.1	58	20.9	2	5	270	0.00	30.362 
13:45	34.6	34.6	34.6	58	21.4	1	4	248	0.00	30.350 
13:50	34.7	34.7	34.7	57	21.0	2	8	270	0.00	30.350 
13:55	34.9	34.9	34.9	56	20.8	3	5	248	0.00	30.350 
14:00	35.0	35.0	35.0	55	20.5	2	6	248	0.00	30.346 
14:05	35.3	35.3	35.3	55	20.8	2	5	270	0.00	30.346 
14:10	35.6	35.6	35.6	56	21.5	1	4	248	0.00	30.346 
14:15	35.8	35.8	35.8	54	20.8	2	7	248	0.00	30.342 
14:20	35.9	35.9	35.9	56	21.8	2	5	248	0.00	30.342 
14:25	36.0	36.0	36.0	56	21.8	1	4	248	0.00	30.342 
14:30	35.9	35.9	35.9	54	20.9	3	8	248	0.00	30.347 
14:35	35.9	35.9	35.9	54	20.9	2	6	248	0.00	30.347 
14:40	36.0	36.0	36.0	54	21.0	2	5	248	0.00	30.347 
14:45	36.2	36.2	36.2	57	22.5	2	4	248	0.00	30.337 
14:50	36.3	36.3	36.3	55	21.7	1	4	248	0.00	30.337 
14:55	36.6	36.6	36.6	55	22.0	1	5	248	0.00	30.337 
15:00	36.3	36.3	36.3	53	20.8	3	5	248	0.00	30.336 
15:05	36.0	36.0	36.0	54	21.0	2	9	248	0.00	30.336 
15:10	35.9	35.9	35.9	55	21.3	3	6	270	0.00	30.336 
15:15	36.0	36.0	36.0	55	21.4	2	6	248	0.00	30.344 
15:20	36.5	36.5	36.5	54	21.5	3	7	248	0.00	30.344 
15:25	36.6	36.6	36.6	54	21.5	3	9	248	0.00	30.344 
15:30	36.5	36.5	36.5	53	21.0	3	9	248	0.00	30.347 
15:35	36.5	36.5	36.5	53	21.0	3	6	248	0.00	30.347 
15:40	36.6	36.6	36.6	54	21.5	3	6	248	0.00	30.347 
15:45	36.5	36.5	36.5	54	21.5	3	6	248	0.00	30.348 
15:50	36.3	36.3	36.3	54	21.3	2	6	248	0.00	30.348 
15:55	36.0	36.0	36.0	55	21.4	3	6	248	0.00	30.348 
16:00	35.9	35.9	35.9	57	22.2	2	5	248	0.00	30.350 
16:05	35.8	35.8	35.8	57	22.1	3	7	248	0.00	30.350 
16:10	35.5	35.5	35.5	57	21.8	3	8	248	0.00	30.350 
16:15	35.3	35.3	35.3	58	22.0	3	6	248	0.00	30.355 
16:20	35.3	35.3	35.3	58	22.0	2	7	248	0.00	30.355 
16:25	35.0	35.0	35.0	58	21.7	3	7	248	0.00	30.355 
16:30	34.9	34.9	34.9	59	22.0	3	7	248	0.00	30.359 
16:35	34.6	34.6	34.6	59	21.8	3	11	248	0.00	30.359 
16:40	34.3	34.3	34.3	59	21.5	2	6	248	0.00	30.359 
16:45	34.0	34.0	34.0	60	21.6	2	7	248	0.00	30.365 
16:50	33.8	33.8	33.8	61	21.8	3	5	248	0.00	30.365 
16:55	33.7	33.7	33.7	61	21.7	2	5	248	0.00	30.365 
17:00	33.5	33.5	33.5	60	21.1	2	7	248	0.00	30.367 
17:05	33.4	33.4	33.4	61	21.4	2	4	248	0.00	30.367 
17:10	33.2	33.2	33.2	61	21.2	2	6	248	0.00	30.367 
17:15	33.1	33.1	33.1	62	21.5	2	6	248	0.00	30.366 
17:20	32.9	32.9	32.9	62	21.3	2	5	248	0.00	30.366 
17:25	32.8	32.8	32.8	63	21.6	2	6	248	0.00	30.366 
17:30	32.7	32.7	32.7	63	21.5	2	5	248	0.00	30.368 
17:35	32.5	32.5	32.5	63	21.3	2	5	248	0.00	30.368 
17:40	32.5	32.5	32.5	63	21.3	1	3	248	0.00	30.368 
17:45	32.4	32.4	32.4	64	21.6	2	6	248	0.00	30.369 
17:50	32.2	32.2	32.2	64	21.4	1	6	248	0.00	30.369 
17:55	32.2	32.2	32.2	65	21.8	1	5	248	0.00	30.369 
18:00	31.9	31.9	31.9	65	21.5	1	5	248	0.00	30.372 
18:05	31.9	31.9	31.9	65	21.5	1	4	248	0.00	30.372 
18:10	31.8	31.8	31.8	65	21.4	1	3	248	0.00	30.372 
18:15	31.8	31.8	31.8	66	21.8	1	5	248	0.00	30.372 
18:20	31.6	31.6	31.6	66	21.6	1	2	248	0.00	30.372 
18:25	31.5	31.5	31.5	67	21.8	1	4	248	0.00	30.372 
18:30	31.5	31.5	31.5	67	21.8	1	4	248	0.00	30.373 
18:35	31.3	31.3	31.3	68	22.0	1	3	248	0.00	30.373 
18:40	31.3	31.3	31.3	68	22.0	1	3	248	0.00	30.373 
18:45	31.2	31.2	31.2	69	22.2	0	2	248	0.00	30.372 
18:50	31.2	31.2	31.2	69	22.2	1	3	248	0.00	30.372 
18:55	31.0	31.0	31.0	69	22.0	0	2	248	0.00	30.372 
19:00	31.0	31.0	31.0	70	22.4	1	3	248	0.00	30.381 
19:05	31.0	31.0	31.0	70	22.4	1	2	248	0.00	30.381 
19:10	30.9	30.9	30.9	71	22.6	1	5	248	0.00	30.381 
19:15	30.9	30.9	30.9	71	22.6	0	2	248	0.00	30.377 
19:20	30.7	30.7	30.7	72	22.8	1	3	248	0.00	30.377 
19:25	30.6	30.6	30.6	73	23.0	1	4	248	0.00	30.377 
19:30	30.6	30.6	30.6	73	23.0	1	5	248	0.00	30.373 
19:35	30.6	30.6	30.6	73	23.0	1	4	248	0.00	30.373 
19:40	30.6	30.6	30.6	73	23.0	1	4	248	0.00	30.373 
19:45	30.6	30.6	30.6	73	23.0	1	4	248	0.00	30.373 
19:50	30.6	30.6	30.6	73	23.0	2	5	248	0.00	30.373 
19:55	30.7	30.7	30.7	73	23.1	1	4	248	0.00	30.373 
20:00	30.6	30.6	30.6	73	23.0	1	4	248	0.00	30.374 
20:05	30.6	30.6	30.6	74	23.3	2	6	248	0.00	30.374 
20:10	30.4	30.4	30.4	74	23.1	1	4	248	0.00	30.374 
20:15	30.4	30.4	30.4	74	23.1	1	4	248	0.00	30.374 
20:20	30.4	30.4	30.4	74	23.1	1	4	248	0.00	30.374 
20:25	30.4	30.4	30.4	74	23.1	2	5	248	0.00	30.374 
20:30	30.4	30.4	30.4	74	23.1	2	6	248	0.00	30.378 
20:35	30.4	30.4	30.4	74	23.1	1	4	248	0.00	30.378 
20:40	30.4	30.4	30.4	74	23.1	2	4	248	0.00	30.378 
20:45	30.4	30.4	30.4	74	23.1	2	5	248	0.00	30.381 
20:50	30.4	30.4	30.4	74	23.1	2	5	248	0.00	30.381 
20:55	30.4	30.4	30.4	74	23.1	2	6	248	0.00	30.381 
21:00	30.4	30.4	30.4	74	23.1	2	6	248	0.00	30.376 
21:05	30.4	30.4	30.4	74	23.1	2	6	248	0.00	30.376 
21:10	30.4	30.4	30.4	74	23.1	2	5	248	0.00	30.376 
21:15	30.6	30.6	30.6	75	23.6	3	7	248	0.00	30.375 
21:20	30.6	30.6	30.6	74	23.3	3	7	248	0.00	30.375 
21:25	30.6	30.6	30.6	75	23.6	2	6	248	0.00	30.375 
21:30	30.4	30.4	30.4	75	23.4	2	5	248	0.00	30.376 
21:35	30.4	30.4	30.4	75	23.4	3	5	248	0.00	30.376 
21:40	30.4	30.4	30.4	75	23.4	2	6	248	0.00	30.376 
21:45	30.4	30.4	30.4	75	23.4	2	6	248	0.00	30.373 
21:50	30.3	30.3	30.3	75	23.3	1	4	248	0.00	30.373 
21:55	30.3	30.3	30.3	75	23.3	2	9	248	0.00	30.373 
22:00	30.4	30.4	30.4	75	23.4	2	10	248	0.00	30.373 
22:05	30.4	30.4	30.4	75	23.4	2	6	248	0.00	30.373 
22:10	30.6	30.6	30.6	75	23.6	3	6	248	0.00	30.373 
22:15	30.6	30.6	30.6	74	23.3	3	9	270	0.00	30.376 
22:20	30.6	26.5	30.6	74	23.3	4	9	270	0.00	30.376 
22:25	30.6	30.6	30.6	74	23.3	3	7	248	0.00	30.376 
22:30	30.4	30.4	30.4	74	23.1	3	10	248	0.00	30.375 
22:35	30.4	30.4	30.4	74	23.1	3	10	248	0.00	30.375 
22:40	30.3	30.3	30.3	75	23.3	2	6	248	0.00	30.375 
22:45	30.3	30.3	30.3	75	23.3	3	6	270	0.00	30.380 
22:50	30.1	30.1	30.1	76	23.5	3	7	270	0.00	30.380 
22:55	30.1	25.9	30.1	76	23.5	4	7	270	0.00	30.380 
23:00	30.1	30.1	30.1	76	23.5	3	9	270	0.00	30.387 
23:05	30.1	30.1	30.1	77	23.8	3	11	270	0.00	30.387 
23:10	30.1	30.1	30.1	77	23.8	3	6	270	0.00	30.387 
23:15	30.1	24.8	30.1	77	23.8	5	12	270	0.00	30.392 
23:20	30.1	30.1	30.1	77	23.8	3	10	270	0.00	30.392 
23:25	30.0	25.8	30.0	76	23.4	4	11	270	0.00	30.392 
23:30	29.8	24.5	29.8	75	22.9	5	12	270	0.00	30.386 
23:35	29.8	29.8	29.8	75	22.9	3	11	270	0.00	30.386 
23:40	29.7	25.4	29.7	75	22.8	4	10	270	0.00	30.386 
23:45	29.5	29.5	29.5	75	22.6	3	10	270	0.00	30.381 
23:50	29.3	29.3	29.3	76	22.7	3	10	270	0.00	30.381 
23:55	29.1	29.1	29.1	76	22.5	3	6	270	0.00	30.381 

CoCoRaHS
IN-AL-39
A2 Web Hosting
Creative Commons License
GoDaddy
Look for:

loaded 2017-12-12 01:54:28 • last modified 2010-11-18 10:43:29
Privacy PolicyDisclaimer
• wx.awcolley.com is powered by PmWiki v.2002016 •
• all content (unless otherwise noted) © 2017 A W Colley